sensor_id;sensor_type;location;lat;lon;timestamp;temperature;humidity
12632;DHT22;6381;45.748;12.106;2023-02-28T18:05:24;9.00;71.00
12632;DHT22;6381;45.748;12.106;2023-02-28T18:15:41;8.50;72.40
12632;DHT22;6381;45.748;12.106;2023-02-28T18:18:12;8.80;64.40
12632;DHT22;6381;45.748;12.106;2023-02-28T18:20:41;8.80;65.50
12632;DHT22;6381;45.748;12.106;2023-02-28T18:23:28;8.80;66.40
12632;DHT22;6381;45.748;12.106;2023-02-28T18:25:57;8.80;63.80
12632;DHT22;6381;45.748;12.106;2023-02-28T18:36:51;8.60;66.20
12632;DHT22;6381;45.748;12.106;2023-02-28T18:39:20;8.50;67.30
12632;DHT22;6381;45.748;12.106;2023-02-28T18:41:51;8.30;68.60
12632;DHT22;6381;45.748;12.106;2023-02-28T18:44:22;8.20;67.60
12632;DHT22;6381;45.748;12.106;2023-02-28T18:47:09;8.20;66.10
12632;DHT22;6381;45.748;12.106;2023-02-28T18:52:28;8.20;66.50
12632;DHT22;6381;45.748;12.106;2023-02-28T18:54:57;8.40;65.80
12632;DHT22;6381;45.748;12.106;2023-02-28T18:57:27;8.10;66.10
12632;DHT22;6381;45.748;12.106;2023-02-28T18:59:56;8.20;66.60
12632;DHT22;6381;45.748;12.106;2023-02-28T19:05:13;8.10;66.90
12632;DHT22;6381;45.748;12.106;2023-02-28T19:10:11;8.20;68.10
12632;DHT22;6381;45.748;12.106;2023-02-28T19:12:41;8.00;67.40
12632;DHT22;6381;45.748;12.106;2023-02-28T19:15:27;7.80;67.90
12632;DHT22;6381;45.748;12.106;2023-02-28T19:17:58;7.90;68.20
12632;DHT22;6381;45.748;12.106;2023-02-28T19:20:27;8.00;68.00
12632;DHT22;6381;45.748;12.106;2023-02-28T19:22:56;7.80;67.60
12632;DHT22;6381;45.748;12.106;2023-02-28T19:25:29;7.30;68.00
12632;DHT22;6381;45.748;12.106;2023-02-28T19:27:58;7.30;67.90
12632;DHT22;6381;45.748;12.106;2023-02-28T19:30:45;7.10;68.60
12632;DHT22;6381;45.748;12.106;2023-02-28T19:33:17;6.80;68.90
12632;DHT22;6381;45.748;12.106;2023-02-28T19:35:47;7.00;69.00
12632;DHT22;6381;45.748;12.106;2023-02-28T19:38:16;6.90;69.50
12632;DHT22;6381;45.748;12.106;2023-02-28T19:40:45;6.90;69.30
12632;DHT22;6381;45.748;12.106;2023-02-28T19:48:35;6.90;70.00
12632;DHT22;6381;45.748;12.106;2023-02-28T19:53:55;6.80;70.60
12632;DHT22;6381;45.748;12.106;2023-02-28T19:56:25;6.80;70.40
12632;DHT22;6381;45.748;12.106;2023-02-28T19:58:57;6.90;70.40
12632;DHT22;6381;45.748;12.106;2023-02-28T20:01:26;6.80;70.30
12632;DHT22;6381;45.748;12.106;2023-02-28T20:04:14;7.00;70.30
12632;DHT22;6381;45.748;12.106;2023-02-28T20:07:00;6.80;70.30
12632;DHT22;6381;45.748;12.106;2023-02-28T20:09:47;6.90;70.90
12632;DHT22;6381;45.748;12.106;2023-02-28T20:12:16;6.90;71.00
12632;DHT22;6381;45.748;12.106;2023-02-28T20:17:39;7.30;70.70
12632;DHT22;6381;45.748;12.106;2023-02-28T20:20:11;7.10;70.10
12632;DHT22;6381;45.748;12.106;2023-02-28T20:25:12;6.90;70.30
12632;DHT22;6381;45.748;12.106;2023-02-28T20:27:41;6.80;71.10
12632;DHT22;6381;45.748;12.106;2023-02-28T20:30:11;6.80;71.30
12632;DHT22;6381;45.748;12.106;2023-02-28T20:32:40;6.80;72.20
12632;DHT22;6381;45.748;12.106;2023-02-28T20:38:00;7.30;74.20
12632;DHT22;6381;45.748;12.106;2023-02-28T20:40:29;6.70;70.80
12632;DHT22;6381;45.748;12.106;2023-02-28T20:42:58;6.70;70.90
12632;DHT22;6381;45.748;12.106;2023-02-28T20:45:28;6.90;71.10
12632;DHT22;6381;45.748;12.106;2023-02-28T20:47:59;6.80;71.20
12632;DHT22;6381;45.748;12.106;2023-02-28T20:50:49;6.70;71.90
12632;DHT22;6381;45.748;12.106;2023-02-28T20:55:54;6.70;70.00
12632;DHT22;6381;45.748;12.106;2023-02-28T20:58:42;6.90;70.70
12632;DHT22;6381;45.748;12.106;2023-02-28T21:01:49;6.40;70.80
12632;DHT22;6381;45.748;12.106;2023-02-28T21:04:18;6.70;71.80
12632;DHT22;6381;45.748;12.106;2023-02-28T21:06:49;6.60;72.40
12632;DHT22;6381;45.748;12.106;2023-02-28T21:09:18;6.70;71.20
12632;DHT22;6381;45.748;12.106;2023-02-28T21:14:35;6.30;71.20
12632;DHT22;6381;45.748;12.106;2023-02-28T21:17:04;6.40;71.80
12632;DHT22;6381;45.748;12.106;2023-02-28T21:19:35;6.50;71.30
12632;DHT22;6381;45.748;12.106;2023-02-28T21:24:35;6.70;71.60
12632;DHT22;6381;45.748;12.106;2023-02-28T21:27:24;6.60;72.20
12632;DHT22;6381;45.748;12.106;2023-02-28T21:29:53;6.60;72.70
12632;DHT22;6381;45.748;12.106;2023-02-28T21:32:22;6.70;73.90
12632;DHT22;6381;45.748;12.106;2023-02-28T21:37:24;6.60;74.00
12632;DHT22;6381;45.748;12.106;2023-02-28T21:39:53;6.70;73.50
12632;DHT22;6381;45.748;12.106;2023-02-28T21:42:22;6.50;73.40
12632;DHT22;6381;45.748;12.106;2023-02-28T21:44:52;6.60;73.60
12632;DHT22;6381;45.748;12.106;2023-02-28T21:47:24;6.60;73.30
12632;DHT22;6381;45.748;12.106;2023-02-28T21:49:53;6.60;73.50
12632;DHT22;6381;45.748;12.106;2023-02-28T21:52:24;6.60;73.90
12632;DHT22;6381;45.748;12.106;2023-02-28T21:54:53;6.60;73.70
12632;DHT22;6381;45.748;12.106;2023-02-28T21:57:22;6.70;73.10
12632;DHT22;6381;45.748;12.106;2023-02-28T21:59:52;6.60;73.40
12632;DHT22;6381;45.748;12.106;2023-02-28T22:02:21;6.40;74.00
12632;DHT22;6381;45.748;12.106;2023-02-28T22:07:19;6.30;74.20
12632;DHT22;6381;45.748;12.106;2023-02-28T22:09:50;6.20;73.50
12632;DHT22;6381;45.748;12.106;2023-02-28T22:12:19;6.30;74.00
12632;DHT22;6381;45.748;12.106;2023-02-28T22:14:48;6.50;74.50
12632;DHT22;6381;45.748;12.106;2023-02-28T22:17:17;6.40;74.40
12632;DHT22;6381;45.748;12.106;2023-02-28T22:22:18;6.50;74.60
12632;DHT22;6381;45.748;12.106;2023-02-28T22:27:18;6.50;73.70
12632;DHT22;6381;45.748;12.106;2023-02-28T22:29:47;6.40;74.80
12632;DHT22;6381;45.748;12.106;2023-02-28T22:32:17;6.40;75.20
12632;DHT22;6381;45.748;12.106;2023-02-28T22:45:08;6.60;77.60
12632;DHT22;6381;45.748;12.106;2023-02-28T22:55:42;6.30;78.20
12632;DHT22;6381;45.748;12.106;2023-02-28T22:58:13;6.30;76.90
12632;DHT22;6381;45.748;12.106;2023-02-28T23:01:05;6.30;76.90
12632;DHT22;6381;45.748;12.106;2023-02-28T23:06:11;6.10;77.60
12632;DHT22;6381;45.748;12.106;2023-02-28T23:11:31;6.30;77.80
12632;DHT22;6381;45.748;12.106;2023-02-28T23:14:03;6.30;76.70
12632;DHT22;6381;45.748;12.106;2023-02-28T23:16:35;6.30;76.30
12632;DHT22;6381;45.748;12.106;2023-02-28T23:19:06;6.00;75.40
12632;DHT22;6381;45.748;12.106;2023-02-28T23:21:36;6.00;76.00
12632;DHT22;6381;45.748;12.106;2023-02-28T23:24:24;6.10;75.60
12632;DHT22;6381;45.748;12.106;2023-02-28T23:26:56;5.90;76.20
12632;DHT22;6381;45.748;12.106;2023-02-28T23:29:44;5.80;76.90
12632;DHT22;6381;45.748;12.106;2023-02-28T23:32:14;5.80;76.40
12632;DHT22;6381;45.748;12.106;2023-02-28T23:37:30;5.80;75.60
12632;DHT22;6381;45.748;12.106;2023-02-28T23:40:02;5.70;76.60
12632;DHT22;6381;45.748;12.106;2023-02-28T23:42:50;6.20;77.10
12632;DHT22;6381;45.748;12.106;2023-02-28T23:45:20;5.70;77.10
12632;DHT22;6381;45.748;12.106;2023-02-28T23:47:49;5.70;76.70
12632;DHT22;6381;45.748;12.106;2023-02-28T23:53:06;5.80;76.90
12632;DHT22;6381;45.748;12.106;2023-02-28T23:55:35;5.80;77.90
12632;DHT22;6381;45.748;12.106;2023-02-28T23:58:04;5.90;77.80
